Time;durP1;ratioP1;P1;durP2;ratioP2;P2;SDS_P1;SDS_P2;PMS_P1;PMS_P2;Temp;Humidity;BMP_temperature;BMP_pressure;BME280_temperature;BME280_humidity;BME280_pressure;Samples;Min_cycle;Max_cycle;Signal;HPM_P1;HPM_P2
2023/05/14 00:02:25;;;;;;;1.30;1.20;;;14.80;57.70;;;;;;5011518;28;20224;-55
2023/05/14 00:04:56;;;;;;;1.05;0.90;;;14.80;57.70;;;;;;5010540;28;20555;-55
2023/05/14 00:07:29;;;;;;;1.80;1.13;;;14.80;58.30;;;;;;5010719;28;20204;-55
2023/05/14 00:10:02;;;;;;;1.67;1.00;;;14.80;57.70;;;;;;5010702;28;20221;-54
2023/05/14 00:12:32;;;;;;;1.10;0.90;;;14.90;57.80;;;;;;5011005;28;20208;-56
2023/05/14 00:15:03;;;;;;;1.20;1.10;;;14.90;57.90;;;;;;5010239;28;20204;-52
2023/05/14 00:17:33;;;;;;;1.45;1.15;;;14.90;58.00;;;;;;5011155;28;20207;-53
2023/05/14 00:20:05;;;;;;;1.98;1.13;;;14.90;58.00;;;;;;5010315;28;20209;-55
2023/05/14 00:22:36;;;;;;;1.75;1.20;;;15.00;58.10;;;;;;5010182;28;20307;-54
2023/05/14 00:25:09;;;;;;;1.13;1.02;;;15.00;58.10;;;;;;5010995;28;20675;-53
2023/05/14 00:27:40;;;;;;;1.98;0.90;;;15.00;58.10;;;;;;5011325;28;20205;-55
2023/05/14 00:30:11;;;;;;;1.05;0.90;;;15.00;58.10;;;;;;5010897;28;20631;-56
2023/05/14 00:32:42;;;;;;;1.23;0.93;;;15.00;58.20;;;;;;5011081;28;20197;-57
2023/05/14 00:35:13;;;;;;;1.40;1.27;;;15.00;58.20;;;;;;5008113;28;20197;-54
2023/05/14 00:37:43;;;;;;;1.48;1.20;;;15.10;58.30;;;;;;5003232;28;20193;-53
2023/05/14 00:40:16;;;;;;;1.13;1.00;;;15.10;58.20;;;;;;5009082;28;20610;-52
2023/05/14 00:42:47;;;;;;;2.22;1.10;;;15.10;58.20;;;;;;4996281;28;20228;-55
2023/05/14 00:45:17;;;;;;;1.20;1.00;;;15.20;58.20;;;;;;5010409;28;20208;-53
2023/05/14 00:47:48;;;;;;;1.33;1.15;;;15.20;58.20;;;;;;5010187;28;20661;-53
2023/05/14 00:50:19;;;;;;;2.05;1.10;;;15.20;58.20;;;;;;5009284;28;20221;-50
2023/05/14 00:52:50;;;;;;;1.02;0.93;;;15.20;58.20;;;;;;5010422;28;20201;-55
2023/05/14 00:55:24;;;;;;;1.75;1.10;;;15.20;58.30;;;;;;5010725;28;20208;-54
2023/05/14 00:57:57;;;;;;;1.15;1.05;;;15.20;58.40;;;;;;5010678;28;20224;-52
2023/05/14 01:00:27;;;;;;;1.58;0.90;;;15.30;58.50;;;;;;5011072;28;20228;-50
2023/05/14 01:03:00;;;;;;;1.17;1.00;;;15.30;58.60;;;;;;5009555;28;20232;-50
2023/05/14 01:05:37;;;;;;;1.90;1.45;;;15.30;58.60;;;;;;5011110;28;20571;-54
2023/05/14 01:08:14;;;;;;;1.65;1.30;;;15.30;58.80;;;;;;5013926;28;20251;-52
2023/05/14 01:10:53;;;;;;;2.08;1.17;;;15.30;58.80;;;;;;5014287;28;20223;-55
2023/05/14 01:13:31;;;;;;;2.22;1.20;;;15.30;58.80;;;;;;5013275;28;20583;-58
2023/05/14 01:16:04;;;;;;;2.08;1.20;;;15.30;58.70;;;;;;5014129;28;20644;-53
2023/05/14 01:18:35;;;;;;;2.95;1.88;;;15.40;58.90;;;;;;5012591;28;20208;-53
2023/05/14 01:21:06;;;;;;;3.88;2.00;;;15.40;59.80;;;;;;5013835;28;20197;-56
2023/05/14 01:23:39;;;;;;;3.90;2.55;;;15.40;60.30;;;;;;5013708;28;20692;-53
2023/05/14 01:26:09;;;;;;;4.18;2.47;;;15.50;60.80;;;;;;5013387;28;20560;-53
2023/05/14 01:28:41;;;;;;;4.90;2.58;;;15.50;60.90;;;;;;5013561;28;20197;-52
2023/05/14 01:31:18;;;;;;;3.72;2.60;;;15.60;61.00;;;;;;5013122;28;20193;-53
2023/05/14 01:33:50;;;;;;;4.80;2.85;;;15.70;61.00;;;;;;5014004;28;20753;-53
2023/05/14 01:36:21;;;;;;;4.50;2.45;;;15.70;61.00;;;;;;5012929;28;20197;-54
2023/05/14 01:38:55;;;;;;;4.88;2.42;;;15.80;60.90;;;;;;5013440;28;20223;-50
2023/05/14 01:41:27;;;;;;;3.72;2.13;;;15.80;60.60;;;;;;5013091;28;20189;-54
2023/05/14 01:43:58;;;;;;;3.25;2.20;;;15.80;60.40;;;;;;5008876;28;20315;-52
2023/05/14 01:46:32;;;;;;;3.85;2.50;;;15.90;60.10;;;;;;5013613;28;20196;-56
2023/05/14 01:49:03;;;;;;;2.75;1.98;;;15.90;60.00;;;;;;5013336;28;20254;-56
2023/05/14 01:51:34;;;;;;;3.47;2.03;;;15.90;59.90;;;;;;5013537;28;20690;-52
2023/05/14 01:54:06;;;;;;;3.67;2.35;;;15.90;59.80;;;;;;5012675;28;20211;-52
2023/05/14 01:56:37;;;;;;;3.20;2.28;;;15.90;59.70;;;;;;5012938;28;20649;-55
2023/05/14 01:59:07;;;;;;;3.03;2.13;;;15.90;59.60;;;;;;5013132;28;20217;-52
2023/05/14 02:01:38;;;;;;;4.45;2.40;;;15.90;59.60;;;;;;5013393;28;20207;-55
2023/05/14 02:04:09;;;;;;;4.55;2.47;;;16.00;59.60;;;;;;5013250;28;20228;-55
2023/05/14 02:06:39;;;;;;;2.95;2.00;;;16.00;59.50;;;;;;5012864;28;20189;-54
2023/05/14 02:09:12;;;;;;;3.33;2.10;;;16.00;59.40;;;;;;5012550;28;20244;-52
2023/05/14 02:11:42;;;;;;;3.15;2.00;;;16.00;59.40;;;;;;5012276;28;20204;-56
2023/05/14 02:14:14;;;;;;;3.65;2.10;;;16.00;59.30;;;;;;5011904;28;20227;-53
2023/05/14 02:16:44;;;;;;;5.10;2.20;;;16.10;59.30;;;;;;5011676;28;20197;-54
2023/05/14 02:19:15;;;;;;;2.42;1.85;;;16.10;59.30;;;;;;5012498;28;20225;-55
2023/05/14 02:21:46;;;;;;;2.95;1.80;;;16.10;59.20;;;;;;5012167;28;20203;-54
2023/05/14 02:24:18;;;;;;;3.58;1.98;;;16.10;59.20;;;;;;5010745;28;20235;-50
2023/05/14 02:26:49;;;;;;;2.13;1.77;;;16.10;59.20;;;;;;5012384;28;20305;-55
2023/05/14 02:29:19;;;;;;;4.82;2.25;;;16.10;59.10;;;;;;5012468;28;20220;-53
2023/05/14 02:31:50;;;;;;;2.88;1.90;;;16.20;59.10;;;;;;5012996;28;20196;-51
2023/05/14 02:34:21;;;;;;;3.70;2.10;;;16.20;59.10;;;;;;5012945;28;20201;-52
2023/05/14 02:36:51;;;;;;;2.08;1.67;;;16.20;59.00;;;;;;5012726;28;20201;-55
2023/05/14 02:39:24;;;;;;;2.90;2.20;;;16.20;59.10;;;;;;5012245;28;20224;-53
2023/05/14 02:41:55;;;;;;;5.07;2.20;;;16.20;59.10;;;;;;5012803;28;20208;-50
2023/05/14 02:44:25;;;;;;;3.55;1.83;;;16.20;59.00;;;;;;5013375;28;20232;-52
2023/05/14 02:46:56;;;;;;;3.22;2.00;;;16.30;59.10;;;;;;5012496;28;20561;-55
2023/05/14 02:49:26;;;;;;;1.92;1.70;;;16.30;59.10;;;;;;5012074;28;20228;-55
2023/05/14 02:51:57;;;;;;;2.10;1.70;;;16.30;59.10;;;;;;5012354;28;20201;-54
2023/05/14 02:54:29;;;;;;;2.90;1.80;;;16.30;59.10;;;;;;5012390;28;20210;-53
2023/05/14 02:57:00;;;;;;;3.67;2.20;;;16.30;59.10;;;;;;5012089;28;20204;-54
2023/05/14 02:59:31;;;;;;;3.47;2.10;;;16.30;59.10;;;;;;5011895;28;20220;-52
2023/05/14 03:02:01;;;;;;;3.47;2.13;;;16.40;59.10;;;;;;5012155;28;20193;-54
2023/05/14 03:04:32;;;;;;;3.03;2.13;;;16.40;59.10;;;;;;5012175;28;20231;-54
2023/05/14 03:07:03;;;;;;;3.85;2.25;;;16.40;59.10;;;;;;5012371;28;20284;-52
2023/05/14 03:09:35;;;;;;;2.88;1.52;;;16.40;59.10;;;;;;5009764;28;20301;-53
2023/05/14 03:12:06;;;;;;;3.08;1.95;;;16.50;59.10;;;;;;5012055;28;20201;-54
2023/05/14 03:14:37;;;;;;;2.58;1.88;;;16.50;59.10;;;;;;5012423;28;20201;-51
2023/05/14 03:17:08;;;;;;;2.63;2.28;;;16.50;59.00;;;;;;5012593;28;20197;-53
2023/05/14 03:19:38;;;;;;;2.85;2.00;;;16.50;59.00;;;;;;5012364;28;20221;-54
2023/05/14 03:22:09;;;;;;;2.90;1.67;;;16.60;59.10;;;;;;5011749;28;20497;-50
2023/05/14 03:24:43;;;;;;;1.98;1.60;;;16.60;59.10;;;;;;5012077;28;20220;-51
2023/05/14 03:27:13;;;;;;;3.70;1.80;;;16.60;59.00;;;;;;5012185;28;20233;-55
2023/05/14 03:29:47;;;;;;;2.22;1.55;;;16.70;59.10;;;;;;5011732;28;20217;-55
2023/05/14 03:32:19;;;;;;;3.25;1.70;;;16.70;59.10;;;;;;5011785;28;20653;-55
2023/05/14 03:34:49;;;;;;;2.47;2.00;;;16.70;59.10;;;;;;5009393;28;20197;-58
2023/05/14 03:37:20;;;;;;;1.98;1.70;;;16.80;59.10;;;;;;5011803;28;20192;-56
2023/05/14 03:39:52;;;;;;;2.30;1.70;;;16.70;58.90;;;;;;5011581;28;20221;-57
2023/05/14 03:42:23;;;;;;;2.38;1.77;;;16.80;58.90;;;;;;5011893;28;20224;-54
2023/05/14 03:44:54;;;;;;;2.58;1.65;;;16.80;58.80;;;;;;5012459;28;20224;-57
2023/05/14 03:47:24;;;;;;;3.80;1.80;;;16.90;58.80;;;;;;5012250;28;20197;-54
2023/05/14 03:49:55;;;;;;;2.08;1.70;;;16.90;58.80;;;;;;5010874;28;20220;-57
2023/05/14 03:52:26;;;;;;;2.55;1.55;;;16.90;58.70;;;;;;5012112;28;20243;-57
2023/05/14 03:54:58;;;;;;;2.47;1.90;;;17.00;58.80;;;;;;5011789;28;20197;-55
2023/05/14 03:57:29;;;;;;;3.63;1.90;;;17.00;58.70;;;;;;5012158;28;20204;-57
2023/05/14 03:59:59;;;;;;;2.33;1.83;;;17.00;58.70;;;;;;5011716;28;20217;-54
2023/05/14 04:02:30;;;;;;;3.03;1.70;;;17.00;58.70;;;;;;5011012;28;20200;-52
2023/05/14 04:05:00;;;;;;;2.60;1.50;;;17.10;58.70;;;;;;5010726;28;20200;-55
2023/05/14 04:07:31;;;;;;;1.85;1.38;;;17.10;58.70;;;;;;5011650;28;20205;-54
2023/05/14 04:10:04;;;;;;;1.35;1.25;;;17.10;58.60;;;;;;5011317;28;20251;-53
2023/05/14 04:12:35;;;;;;;1.98;1.60;;;17.20;58.60;;;;;;5011303;28;20614;-51
2023/05/14 04:15:06;;;;;;;3.22;1.63;;;17.20;58.50;;;;;;5011300;28;20740;-54
2023/05/14 04:17:36;;;;;;;2.42;1.30;;;17.20;58.50;;;;;;5010806;28;20197;-53
2023/05/14 04:20:08;;;;;;;2.40;1.60;;;17.20;58.40;;;;;;5010548;28;20221;-51
2023/05/14 04:22:38;;;;;;;2.60;1.73;;;17.30;58.50;;;;;;5010944;28;20232;-55
2023/05/14 04:25:12;;;;;;;3.08;1.60;;;17.30;58.40;;;;;;5010713;28;20201;-51
2023/05/14 04:27:42;;;;;;;3.03;1.85;;;17.30;58.40;;;;;;5011223;28;20208;-51
2023/05/14 04:30:14;;;;;;;2.50;2.00;;;17.30;58.30;;;;;;5010935;28;20224;-54
2023/05/14 04:32:44;;;;;;;3.78;1.65;;;17.30;58.30;;;;;;5011011;28;20200;-53
2023/05/14 04:35:15;;;;;;;2.42;1.70;;;17.30;58.30;;;;;;5009892;28;20205;-57
2023/05/14 04:37:46;;;;;;;2.90;2.10;;;17.40;58.30;;;;;;5009020;28;20201;-57
2023/05/14 04:40:18;;;;;;;2.33;2.05;;;17.40;58.30;;;;;;5011010;28;20221;-55
2023/05/14 04:42:49;;;;;;;3.10;2.22;;;17.40;58.30;;;;;;5011334;28;20193;-52
2023/05/14 04:45:20;;;;;;;2.38;1.98;;;17.40;58.20;;;;;;5015177;28;20764;-55
2023/05/14 04:47:51;;;;;;;3.35;2.00;;;17.40;58.30;;;;;;5015085;28;20236;-51
2023/05/14 04:50:22;;;;;;;2.67;1.90;;;17.40;58.30;;;;;;5014467;28;20239;-51
2023/05/14 04:52:54;;;;;;;2.50;1.80;;;17.40;58.20;;;;;;5015067;28;20602;-53
2023/05/14 04:55:27;;;;;;;2.80;2.03;;;17.50;58.20;;;;;;5014749;28;20332;-55
2023/05/14 04:57:57;;;;;;;2.00;1.75;;;17.40;58.20;;;;;;5013801;28;20684;-54
2023/05/14 05:00:28;;;;;;;3.28;1.95;;;17.50;58.20;;;;;;5014533;28;20692;-55
2023/05/14 05:02:59;;;;;;;3.75;2.20;;;17.50;58.20;;;;;;5014738;28;20204;-55
2023/05/14 05:05:29;;;;;;;2.45;2.08;;;17.50;58.10;;;;;;5014399;28;20209;-53
2023/05/14 05:08:00;;;;;;;2.42;1.88;;;17.50;58.10;;;;;;5014605;28;20599;-51
2023/05/14 05:10:32;;;;;;;2.53;1.75;;;17.50;58.00;;;;;;5014015;28;20216;-53
2023/05/14 05:13:03;;;;;;;2.55;2.22;;;17.50;58.00;;;;;;5013813;28;20208;-56
2023/05/14 05:15:34;;;;;;;3.03;2.20;;;17.50;57.90;;;;;;5014092;28;20688;-56
2023/05/14 05:18:05;;;;;;;3.47;2.00;;;17.50;57.90;;;;;;5014060;28;20192;-54
2023/05/14 05:20:35;;;;;;;3.10;2.20;;;17.50;57.90;;;;;;5013982;28;20228;-53
2023/05/14 05:23:06;;;;;;;2.88;2.05;;;17.50;57.80;;;;;;5014032;28;20201;-54
2023/05/14 05:25:38;;;;;;;2.10;1.90;;;17.50;57.90;;;;;;5014195;28;20224;-53
2023/05/14 05:28:09;;;;;;;2.63;2.28;;;17.50;57.90;;;;;;5013668;28;20192;-56
2023/05/14 05:30:40;;;;;;;2.78;2.22;;;17.50;57.90;;;;;;5014327;28;20221;-55
2023/05/14 05:33:10;;;;;;;2.90;2.50;;;17.50;57.80;;;;;;5014385;28;20548;-52
2023/05/14 05:35:42;;;;;;;2.72;2.13;;;17.50;57.80;;;;;;5014221;28;20201;-51
2023/05/14 05:38:14;;;;;;;5.18;2.47;;;17.50;57.80;;;;;;5013239;28;20197;-52
2023/05/14 05:40:46;;;;;;;2.58;2.25;;;17.50;57.80;;;;;;5013068;28;20220;-54
2023/05/14 05:43:18;;;;;;;3.20;2.78;;;17.40;57.60;;;;;;5014160;28;20209;-56
2023/05/14 05:45:52;;;;;;;4.38;2.85;;;17.40;57.60;;;;;;5013618;28;20193;-52
2023/05/14 05:48:24;;;;;;;4.55;2.90;;;17.40;57.50;;;;;;5012686;28;20631;-53
2023/05/14 05:50:55;;;;;;;3.05;2.55;;;17.40;57.50;;;;;;5013327;28;20602;-51
2023/05/14 05:53:26;;;;;;;4.03;2.90;;;17.40;57.50;;;;;;5013272;28;20653;-52
2023/05/14 05:55:58;;;;;;;4.55;3.30;;;17.40;57.40;;;;;;5012969;28;20201;-54
2023/05/14 05:58:29;;;;;;;4.97;3.00;;;17.40;57.40;;;;;;5013673;28;20656;-51
2023/05/14 06:01:00;;;;;;;3.35;3.00;;;17.40;57.40;;;;;;5013728;28;20201;-55
2023/05/14 06:03:30;;;;;;;3.75;2.70;;;17.40;57.40;;;;;;5013467;28;20221;-53
2023/05/14 06:06:01;;;;;;;3.70;3.05;;;17.40;57.40;;;;;;5013644;28;20278;-55
2023/05/14 06:08:32;;;;;;;4.57;3.15;;;17.30;57.30;;;;;;5013475;28;20672;-57
2023/05/14 06:11:05;;;;;;;3.47;2.90;;;17.30;57.30;;;;;;5012683;28;20287;-54
2023/05/14 06:13:35;;;;;;;4.53;3.28;;;17.30;57.30;;;;;;5013343;28;20665;-52
2023/05/14 06:16:06;;;;;;;4.50;3.50;;;17.30;57.30;;;;;;5012779;28;20217;-55
2023/05/14 06:18:37;;;;;;;4.43;3.25;;;17.30;57.30;;;;;;5012930;28;20661;-55
2023/05/14 06:21:07;;;;;;;4.75;3.22;;;17.30;57.40;;;;;;5012970;28;20201;-54
2023/05/14 06:23:38;;;;;;;5.25;3.20;;;17.30;57.40;;;;;;5012957;28;20213;-53
2023/05/14 06:26:10;;;;;;;4.43;3.30;;;17.30;57.30;;;;;;5011280;28;20657;-55
2023/05/14 06:28:41;;;;;;;4.38;3.83;;;17.30;57.30;;;;;;5011618;28;20201;-56
2023/05/14 06:31:12;;;;;;;5.40;3.70;;;17.30;57.30;;;;;;5012818;28;20262;-55
2023/05/14 06:33:43;;;;;;;6.00;3.40;;;17.20;57.30;;;;;;5012952;28;20209;-54
2023/05/14 06:36:14;;;;;;;5.85;4.38;;;17.30;57.30;;;;;;5013122;28;20209;-54
2023/05/14 06:38:44;;;;;;;5.13;4.10;;;17.20;57.30;;;;;;5012765;28;20221;-56
2023/05/14 06:41:17;;;;;;;5.25;3.60;;;17.20;57.30;;;;;;5012306;28;20594;-51
2023/05/14 06:43:48;;;;;;;4.75;4.10;;;17.20;57.30;;;;;;5013223;28;20225;-55
2023/05/14 06:46:19;;;;;;;4.38;3.67;;;17.20;57.30;;;;;;5012908;28;20690;-56
2023/05/14 06:48:49;;;;;;;4.55;3.58;;;17.20;57.30;;;;;;5012264;28;20232;-54
2023/05/14 06:51:20;;;;;;;5.10;3.70;;;17.20;57.30;;;;;;5012654;28;20653;-56
2023/05/14 06:53:51;;;;;;;4.13;3.58;;;17.20;57.30;;;;;;5012712;28;20263;-57
2023/05/14 06:56:24;;;;;;;4.57;3.58;;;17.20;57.30;;;;;;5012031;28;20208;-54
2023/05/14 06:58:54;;;;;;;4.80;3.60;;;17.20;57.30;;;;;;5012606;28;20308;-58
2023/05/14 07:01:25;;;;;;;4.72;3.58;;;17.20;57.30;;;;;;5012767;28;20204;-58
2023/05/14 07:03:55;;;;;;;4.32;3.47;;;17.20;57.20;;;;;;5011836;28;20217;-58
2023/05/14 07:06:26;;;;;;;4.35;3.72;;;17.10;57.20;;;;;;5012195;28;20193;-58
2023/05/14 07:08:57;;;;;;;4.60;3.80;;;17.10;57.20;;;;;;5011459;28;20217;-54
2023/05/14 07:11:29;;;;;;;4.22;3.63;;;17.10;57.20;;;;;;5010895;28;20205;-57
2023/05/14 07:14:00;;;;;;;4.65;3.70;;;17.10;57.80;;;;;;5011524;28;20205;-58
2023/05/14 07:16:31;;;;;;;4.40;3.50;;;17.10;57.20;;;;;;5011751;28;20196;-53
2023/05/14 07:19:01;;;;;;;7.60;4.28;;;17.10;57.20;;;;;;5012038;28;20697;-56
2023/05/14 07:21:32;;;;;;;4.35;3.45;;;17.10;57.20;;;;;;5011898;28;20197;-50
2023/05/14 07:24:03;;;;;;;3.95;3.20;;;17.00;57.20;;;;;;5011770;28;20256;-56
2023/05/14 07:26:35;;;;;;;3.78;3.42;;;17.10;57.20;;;;;;5010857;28;20196;-55
2023/05/14 07:29:06;;;;;;;4.30;3.50;;;17.00;57.20;;;;;;5011414;28;20581;-57
2023/05/14 07:31:36;;;;;;;5.00;4.05;;;17.00;57.20;;;;;;5011393;28;20204;-54
2023/05/14 07:34:07;;;;;;;5.05;3.60;;;17.00;57.20;;;;;;5012182;28;20204;-56
2023/05/14 07:36:38;;;;;;;5.10;3.70;;;17.00;57.20;;;;;;5012038;28;20203;-58
2023/05/14 07:39:08;;;;;;;4.18;3.78;;;17.00;57.20;;;;;;5011518;28;20643;-55
2023/05/14 07:41:41;;;;;;;4.47;3.78;;;17.00;57.20;;;;;;5011377;28;20200;-58
2023/05/14 07:44:11;;;;;;;4.68;3.45;;;17.00;57.20;;;;;;5012431;28;20224;-55
2023/05/14 07:46:42;;;;;;;3.90;3.50;;;17.00;57.20;;;;;;5012018;28;20192;-54
2023/05/14 07:49:13;;;;;;;3.92;3.53;;;17.00;57.20;;;;;;5011629;28;20228;-55
2023/05/14 07:51:43;;;;;;;4.30;3.28;;;17.00;57.20;;;;;;5011696;28;20649;-54
2023/05/14 07:54:14;;;;;;;5.47;3.80;;;16.90;57.20;;;;;;5011250;28;20201;-54
2023/05/14 07:56:46;;;;;;;5.95;4.03;;;16.90;57.20;;;;;;5010676;28;20201;-55
2023/05/14 07:59:17;;;;;;;4.88;3.67;;;16.90;57.20;;;;;;5011298;28;20216;-55
2023/05/14 08:01:48;;;;;;;4.47;3.88;;;16.90;57.20;;;;;;5011684;28;20204;-57
2023/05/14 08:04:18;;;;;;;4.28;3.15;;;16.90;57.20;;;;;;5011765;28;20221;-58
2023/05/14 08:06:49;;;;;;;4.10;3.45;;;16.90;57.20;;;;;;5011582;28;20196;-58
2023/05/14 08:09:22;;;;;;;3.88;3.47;;;16.90;57.20;;;;;;5010238;28;20685;-52
2023/05/14 08:11:54;;;;;;;3.78;3.28;;;16.90;57.30;;;;;;5010765;28;20700;-51
2023/05/14 08:14:25;;;;;;;4.60;3.90;;;16.90;57.20;;;;;;5011724;28;20197;-51
2023/05/14 08:16:56;;;;;;;4.22;3.45;;;16.90;57.20;;;;;;5017086;28;20672;-51
2023/05/14 08:19:26;;;;;;;4.55;3.70;;;16.90;57.30;;;;;;5016865;28;20215;-52
2023/05/14 08:21:57;;;;;;;4.70;3.75;;;16.90;57.30;;;;;;5017299;28;20203;-53
2023/05/14 08:24:27;;;;;;;4.30;3.20;;;16.90;57.30;;;;;;5017348;28;20223;-50
2023/05/14 08:27:01;;;;;;;5.65;3.72;;;16.80;57.20;;;;;;5017782;28;20208;-52
2023/05/14 08:29:31;;;;;;;4.30;3.90;;;16.80;57.20;;;;;;5017583;28;20248;-52
2023/05/14 08:32:02;;;;;;;5.32;4.03;;;16.80;57.20;;;;;;5017626;28;20565;-53
2023/05/14 08:34:32;;;;;;;4.30;3.60;;;16.80;57.20;;;;;;5017957;28;20204;-51
2023/05/14 08:37:03;;;;;;;5.13;3.63;;;16.80;57.20;;;;;;5017947;28;20196;-53
2023/05/14 08:39:34;;;;;;;4.03;3.60;;;16.80;57.20;;;;;;5017085;28;20267;-51
2023/05/14 08:42:09;;;;;;;3.30;2.95;;;16.80;57.20;;;;;;5017737;28;20204;-52
2023/05/14 08:44:47;;;;;;;4.50;3.40;;;16.70;57.10;;;;;;4998341;28;20216;-51
2023/05/14 08:47:19;;;;;;;4.10;3.70;;;16.70;57.10;;;;;;4997747;28;20543;-51
2023/05/14 08:49:54;;;;;;;3.97;3.30;;;16.80;57.20;;;;;;4997355;28;20232;-51
2023/05/14 08:52:25;;;;;;;5.28;3.70;;;16.80;57.20;;;;;;4997751;28;20197;-50
2023/05/14 08:54:58;;;;;;;4.35;3.90;;;16.80;57.20;;;;;;4996990;28;20205;-53
2023/05/14 08:57:31;;;;;;;4.60;3.60;;;16.70;57.20;;;;;;4997617;28;20220;-51
2023/05/14 09:00:06;;;;;;;4.30;3.78;;;16.70;57.10;;;;;;5008373;28;20216;-50
2023/05/14 09:02:38;;;;;;;4.78;3.85;;;16.70;57.20;;;;;;5017512;28;20227;-49
2023/05/14 09:05:10;;;;;;;5.63;4.03;;;16.70;57.20;;;;;;5014652;28;21882;-51
2023/05/14 09:07:40;;;;;;;4.85;3.70;;;16.70;57.20;;;;;;5015247;28;20243;-54
2023/05/14 09:10:14;;;;;;;4.78;3.90;;;16.70;57.20;;;;;;5016114;28;20236;-50
2023/05/14 09:12:46;;;;;;;5.82;4.10;;;16.70;57.20;;;;;;5016173;28;20243;-53
2023/05/14 09:15:17;;;;;;;4.68;3.85;;;16.70;57.20;;;;;;5015183;28;20259;-51
2023/05/14 09:17:49;;;;;;;4.72;3.47;;;16.60;57.10;;;;;;5016869;28;20207;-51
2023/05/14 09:20:20;;;;;;;4.50;4.07;;;16.60;57.10;;;;;;5016107;28;20885;-52
2023/05/14 09:22:55;;;;;;;4.95;3.45;;;16.60;57.10;;;;;;5016361;28;20196;-55
2023/05/14 09:25:32;;;;;;;4.53;3.85;;;16.60;57.10;;;;;;5015539;28;20216;-52
2023/05/14 09:28:10;;;;;;;4.03;3.38;;;16.60;57.10;;;;;;5012991;28;20197;-51
2023/05/14 09:30:40;;;;;;;4.95;3.83;;;16.60;57.10;;;;;;5011759;28;20247;-53
2023/05/14 09:33:11;;;;;;;4.88;3.83;;;16.60;57.10;;;;;;5012655;28;20197;-53
2023/05/14 09:35:43;;;;;;;4.53;3.60;;;16.60;57.10;;;;;;5012572;28;20610;-54
2023/05/14 09:38:14;;;;;;;4.90;3.80;;;16.50;57.10;;;;;;5011865;28;20197;-51
2023/05/14 09:40:44;;;;;;;4.40;3.55;;;16.50;57.10;;;;;;5011647;28;20220;-53
2023/05/14 09:43:17;;;;;;;5.15;3.88;;;16.50;57.10;;;;;;5011034;28;20205;-55
2023/05/14 09:45:47;;;;;;;4.03;3.35;;;16.50;57.10;;;;;;5012877;28;20232;-54
2023/05/14 09:48:18;;;;;;;5.25;3.92;;;16.50;57.10;;;;;;5011893;28;20228;-55
2023/05/14 09:50:50;;;;;;;4.13;3.53;;;16.50;57.10;;;;;;5011759;28;20716;-55
2023/05/14 09:53:21;;;;;;;4.63;3.63;;;16.50;57.10;;;;;;5011250;28;20189;-54
2023/05/14 09:55:52;;;;;;;5.68;4.20;;;16.50;57.10;;;;;;5011656;28;20247;-53
2023/05/14 09:58:25;;;;;;;4.47;3.47;;;16.40;57.10;;;;;;5011587;28;20200;-54
2023/05/14 10:00:58;;;;;;;5.30;3.80;;;16.40;57.10;;;;;;5011573;28;20205;-56
2023/05/14 10:03:31;;;;;;;4.90;3.65;;;16.40;57.10;;;;;;5012668;28;20205;-54
2023/05/14 10:06:06;;;;;;;4.05;3.65;;;16.40;57.10;;;;;;5010035;28;20778;-55
2023/05/14 10:08:37;;;;;;;4.18;3.35;;;16.40;57.00;;;;;;5011367;28;20618;-53
2023/05/14 10:11:12;;;;;;;3.50;3.00;;;16.40;57.00;;;;;;5012408;28;20189;-49
2023/05/14 10:13:48;;;;;;;4.28;3.60;;;16.40;57.00;;;;;;5012365;28;20682;-53
2023/05/14 10:16:23;;;;;;;3.80;3.40;;;16.40;57.00;;;;;;5012156;28;20216;-57
2023/05/14 10:18:56;;;;;;;4.60;3.50;;;16.40;57.00;;;;;;5010140;28;20757;-52
2023/05/14 10:21:28;;;;;;;4.75;3.53;;;16.40;56.90;;;;;;5012072;28;20196;-52
2023/05/14 10:23:59;;;;;;;4.22;3.42;;;16.30;56.90;;;;;;5011127;28;20188;-52
2023/05/14 10:26:30;;;;;;;4.15;3.30;;;16.30;56.90;;;;;;5011363;28;20235;-57
2023/05/14 10:29:03;;;;;;;4.32;2.95;;;16.30;57.00;;;;;;5011136;28;20684;-56
2023/05/14 10:31:54;;;;;;;3.28;2.90;;;16.30;56.90;;;;;;5009611;28;20197;-55
2023/05/14 10:34:36;;;;;;;4.80;3.33;;;16.30;56.90;;;;;;5008725;28;20216;-55
2023/05/14 10:37:09;;;;;;;3.78;3.20;;;16.30;56.90;;;;;;5011772;28;20189;-55
2023/05/14 10:39:47;;;;;;;4.38;3.58;;;16.30;56.90;;;;;;5010447;28;20224;-56
2023/05/14 10:42:19;;;;;;;3.78;3.28;;;16.20;56.90;;;;;;5010433;28;20247;-53
2023/05/14 10:44:57;;;;;;;3.28;2.97;;;16.20;56.90;;;;;;5009901;28;20225;-55
2023/05/14 10:47:29;;;;;;;4.18;3.13;;;16.20;57.00;;;;;;5011564;28;20569;-51
2023/05/14 10:50:01;;;;;;;3.60;3.00;;;16.20;56.90;;;;;;5011372;28;20221;-53
2023/05/14 10:52:32;;;;;;;4.03;2.85;;;16.20;56.90;;;;;;5009350;28;20193;-53
2023/05/14 10:55:06;;;;;;;3.95;3.30;;;16.20;56.90;;;;;;5011304;28;20197;-55
2023/05/14 10:57:38;;;;;;;3.47;2.78;;;16.20;56.90;;;;;;5011480;28;20284;-57
2023/05/14 11:00:12;;;;;;;4.28;3.45;;;16.20;56.90;;;;;;5011267;28;20213;-54
2023/05/14 11:02:44;;;;;;;3.63;3.10;;;16.10;56.80;;;;;;5011091;28;20264;-53
2023/05/14 11:05:16;;;;;;;3.88;3.20;;;16.10;56.80;;;;;;5010899;28;20212;-56
2023/05/14 11:07:48;;;;;;;4.35;3.35;;;16.10;56.80;;;;;;5011111;28;20684;-50
2023/05/14 11:10:20;;;;;;;3.92;3.00;;;16.10;56.80;;;;;;5012969;28;20243;-59
2023/05/14 11:12:52;;;;;;;3.58;2.70;;;16.10;56.80;;;;;;5012021;28;20204;-57
2023/05/14 11:15:25;;;;;;;4.25;3.55;;;16.10;56.80;;;;;;5011830;28;20208;-52
2023/05/14 11:17:56;;;;;;;3.35;3.05;;;16.00;56.80;;;;;;5012305;28;20632;-56
2023/05/14 11:20:27;;;;;;;3.10;2.80;;;16.10;56.80;;;;;;5012590;28;20217;-55
2023/05/14 11:22:57;;;;;;;3.13;2.80;;;16.00;56.80;;;;;;5012679;28;20196;-57
2023/05/14 11:25:28;;;;;;;3.40;2.83;;;16.00;56.80;;;;;;5011981;28;20762;-54
2023/05/14 11:27:59;;;;;;;3.65;3.05;;;16.00;56.80;;;;;;5012196;28;20197;-58
2023/05/14 11:30:34;;;;;;;3.60;3.00;;;16.00;56.80;;;;;;5012296;28;20242;-56
2023/05/14 11:33:04;;;;;;;4.28;2.90;;;16.00;56.80;;;;;;5011777;28;20656;-57
2023/05/14 11:35:35;;;;;;;3.47;2.67;;;16.00;56.80;;;;;;5011874;28;20196;-57
2023/05/14 11:38:06;;;;;;;3.95;2.95;;;16.00;56.80;;;;;;5012167;28;20193;-50
2023/05/14 11:40:36;;;;;;;4.70;3.10;;;16.00;56.80;;;;;;5011862;28;20212;-52
2023/05/14 11:43:07;;;;;;;3.85;2.83;;;15.90;56.70;;;;;;5011803;28;20201;-53
2023/05/14 11:45:40;;;;;;;3.50;2.85;;;15.90;56.80;;;;;;5011878;28;20217;-51
2023/05/14 11:48:16;;;;;;;3.35;2.83;;;15.90;56.70;;;;;;5010990;28;20208;-52
2023/05/14 11:50:48;;;;;;;3.95;2.70;;;15.90;56.70;;;;;;5011257;28;20813;-50
2023/05/14 11:53:26;;;;;;;3.83;2.80;;;15.90;56.70;;;;;;5011192;28;20216;-49
2023/05/14 11:55:57;;;;;;;3.38;2.80;;;15.90;56.70;;;;;;5010979;28;20208;-52
2023/05/14 11:58:27;;;;;;;3.53;2.70;;;15.90;56.70;;;;;;5011004;28;20263;-55
2023/05/14 12:01:00;;;;;;;3.65;2.90;;;15.90;56.70;;;;;;5011066;28;20200;-52
2023/05/14 12:03:33;;;;;;;2.88;2.58;;;15.80;56.70;;;;;;5011517;28;20255;-50
2023/05/14 12:06:07;;;;;;;3.03;2.72;;;15.90;56.70;;;;;;5011164;28;20581;-51
2023/05/14 12:08:38;;;;;;;3.38;2.60;;;15.80;56.70;;;;;;5010860;28;20196;-50
2023/05/14 12:11:10;;;;;;;3.03;2.50;;;15.80;56.70;;;;;;5011163;28;20664;-52
2023/05/14 12:13:41;;;;;;;3.20;2.58;;;15.80;56.70;;;;;;5011356;28;20675;-49
2023/05/14 12:16:14;;;;;;;4.13;2.38;;;15.80;56.70;;;;;;5010979;28;20692;-49
2023/05/14 12:18:45;;;;;;;3.25;2.47;;;15.80;56.70;;;;;;5010729;28;20203;-53
2023/05/14 12:21:16;;;;;;;3.92;2.88;;;15.80;56.70;;;;;;5010911;28;20218;-51
2023/05/14 12:23:46;;;;;;;3.67;2.85;;;15.80;56.70;;;;;;5011710;28;20196;-51
2023/05/14 12:26:17;;;;;;;3.30;2.95;;;15.80;56.70;;;;;;5011459;28;20220;-50
2023/05/14 12:28:50;;;;;;;3.67;2.65;;;15.80;56.70;;;;;;5011076;28;20224;-55
2023/05/14 12:31:30;;;;;;;3.05;2.45;;;15.80;56.70;;;;;;5011342;28;20197;-53
2023/05/14 12:34:01;;;;;;;2.92;2.72;;;15.70;56.70;;;;;;5011487;28;20201;-53
2023/05/14 12:36:32;;;;;;;2.97;2.47;;;15.70;56.70;;;;;;5011536;28;20201;-54
2023/05/14 12:39:04;;;;;;;3.15;2.70;;;15.80;56.70;;;;;;5010635;28;20306;-56
2023/05/14 12:41:36;;;;;;;3.33;2.75;;;15.70;56.70;;;;;;5011258;28;20218;-53
2023/05/14 12:44:07;;;;;;;4.15;2.92;;;15.70;56.70;;;;;;5011907;28;20592;-49
2023/05/14 12:46:39;;;;;;;2.70;2.38;;;15.70;56.70;;;;;;5011034;28;20617;-52
2023/05/14 12:49:10;;;;;;;4.15;2.90;;;15.70;56.80;;;;;;5010831;28;20228;-56
2023/05/14 12:51:41;;;;;;;2.60;2.40;;;15.70;56.80;;;;;;5010878;28;20251;-54
2023/05/14 12:54:11;;;;;;;3.42;2.58;;;15.70;56.70;;;;;;5011159;28;20243;-50
2023/05/14 12:56:42;;;;;;;3.15;2.47;;;15.70;56.70;;;;;;5011055;28;20299;-50
2023/05/14 12:59:13;;;;;;;4.15;2.47;;;15.70;56.70;;;;;;5011275;28;20223;-51
2023/05/14 13:01:46;;;;;;;3.50;2.90;;;15.70;56.70;;;;;;5012060;28;20210;-52
2023/05/14 13:04:16;;;;;;;2.80;2.50;;;15.70;56.70;;;;;;5014467;28;20201;-53
2023/05/14 13:06:47;;;;;;;3.75;2.38;;;15.70;56.80;;;;;;5013600;28;20228;-49
2023/05/14 13:09:17;;;;;;;3.03;2.60;;;15.60;56.70;;;;;;5014052;28;20220;-56
2023/05/14 13:11:48;;;;;;;3.33;2.58;;;15.60;56.70;;;;;;5013924;28;20558;-52